KMJX/MJX METAR and TAF weather

Enter ICAO airport designator
Station Type Date Time Source
KMJX METAR 2024/05/28 23:56 UTC NOAA

KMJX 282356Z AUTO 27006KT 10SM CLR 26/13 A2979 RMK AO2 SLP091 T02560128 10294 20256 53008


Station Type Date Time Source
KMJX Decoded METAR 2024/05/28 23:56 UTC NOAA

Station name not available
May 28, 2024 - 07:56 PM EDT / 2024.05.28 2356 UTC
Wind: from the W (270 degrees) at 7 MPH (6 KT):0
Visibility: 10 mile(s):0
Sky conditions: clear
Temperature: 78.1 F (25.6 C)
Dew Point: 55.0 F (12.8 C)
Relative Humidity: 45%
Pressure (altimeter): 29.79 in. Hg (1008 hPa)
Pressure tendency: 0.02 inches (0.8 hPa) higher than three hours ago
ob: KMJX 282356Z AUTO 27006KT 10SM CLR 26/13 A2979 RMK AO2 SLP091 T02560128 10294 20256 53008
cycle: 0

Station Type Date Time Source
KMJX TAF UTC NOAA

Error!

Example: see airport list